Time;durP1;ratioP1;P1;durP2;ratioP2;P2;SDS_P1;SDS_P2;PMS_P1;PMS_P2;Temp;Humidity;BMP_temperature;BMP_pressure;BME280_temperature;BME280_humidity;BME280_pressure;Samples;Min_cycle;Max_cycle;Signal;HPM_P1;HPM_P2
2023/03/07 00:01:36;;;;;;;22.80;10.63;;;3.50;99.90;;;;;;4937421;28;20296;-70
2023/03/07 00:04:02;;;;;;;22.73;11.63;;;3.50;99.90;;;;;;4918939;29;21048;-70
2023/03/07 00:06:28;;;;;;;22.23;10.40;;;3.50;99.90;;;;;;4931019;29;20249;-70
2023/03/07 00:08:59;;;;;;;21.23;11.70;;;3.50;99.90;;;;;;4916975;29;20474;-70
2023/03/07 00:11:26;;;;;;;31.10;11.73;;;3.50;99.90;;;;;;4912592;29;20468;-70
2023/03/07 00:13:51;;;;;;;25.10;11.10;;;3.50;99.90;;;;;;4914479;29;20464;-70
2023/03/07 00:16:20;;;;;;;27.40;12.33;;;3.50;99.90;;;;;;4939405;29;20523;-71
2023/03/07 00:18:46;;;;;;;26.73;11.97;;;3.50;99.90;;;;;;4924991;29;20716;-67
2023/03/07 00:21:14;;;;;;;26.00;10.73;;;3.50;99.90;;;;;;4928371;29;20610;-70
2023/03/07 00:23:42;;;;;;;23.03;10.37;;;3.60;99.90;;;;;;4921919;29;20466;-69
2023/03/07 00:26:10;;;;;;;18.23;10.87;;;3.50;99.90;;;;;;4920392;29;20463;-71
2023/03/07 00:28:36;;;;;;;20.70;10.10;;;3.60;99.90;;;;;;4905172;29;20538;-70
2023/03/07 00:31:07;;;;;;;23.27;11.10;;;3.60;99.90;;;;;;4919910;29;20479;-70
2023/03/07 00:33:33;;;;;;;24.50;11.20;;;3.70;99.90;;;;;;4924995;29;20322;-70
2023/03/07 00:36:07;;;;;;;21.53;9.97;;;3.70;99.90;;;;;;4916893;28;20521;-70
2023/03/07 00:38:34;;;;;;;19.77;10.07;;;3.70;99.90;;;;;;4916614;29;20461;-70
2023/03/07 00:41:11;;;;;;;26.53;11.87;;;3.60;99.90;;;;;;4927827;29;20472;-70
2023/03/07 00:43:37;;;;;;;22.50;11.03;;;3.60;99.90;;;;;;4917232;29;20567;-69
2023/03/07 00:46:03;;;;;;;26.17;11.63;;;3.60;99.90;;;;;;4920109;29;20973;-70
2023/03/07 00:48:33;;;;;;;23.03;11.40;;;3.70;99.90;;;;;;4936325;28;20467;-70
2023/03/07 00:50:59;;;;;;;24.27;11.53;;;3.60;99.90;;;;;;4904352;29;20467;-70
2023/03/07 00:53:25;;;;;;;21.93;10.70;;;3.50;99.90;;;;;;4946557;28;20441;-70
2023/03/07 00:55:57;;;;;;;22.80;11.67;;;3.60;99.90;;;;;;4921353;28;20483;-70
2023/03/07 00:58:23;;;;;;;21.27;10.63;;;3.60;99.90;;;;;;4932927;28;20574;-70
2023/03/07 01:00:50;;;;;;;21.27;11.20;;;3.50;99.90;;;;;;4947888;28;20538;-70
2023/03/07 01:03:16;;;;;;;21.53;11.10;;;3.50;99.90;;;;;;4922300;29;20542;-70
2023/03/07 01:05:41;;;;;;;21.43;9.97;;;3.60;99.90;;;;;;4919816;29;20888;-68
2023/03/07 01:08:07;;;;;;;20.53;11.23;;;3.60;99.90;;;;;;4928652;29;20465;-70
2023/03/07 01:10:33;;;;;;;20.50;11.00;;;3.50;99.90;;;;;;4920135;29;20226;-70
2023/03/07 01:12:59;;;;;;;18.60;10.07;;;3.50;99.90;;;;;;4918146;28;20356;-70
2023/03/07 01:15:26;;;;;;;23.90;11.10;;;3.60;99.90;;;;;;4923115;29;20215;-70
2023/03/07 01:17:52;;;;;;;22.50;10.57;;;3.50;99.90;;;;;;4924436;28;20543;-70
2023/03/07 01:20:18;;;;;;;25.63;12.50;;;3.60;99.90;;;;;;4940585;28;20461;-70
2023/03/07 01:22:44;;;;;;;29.13;12.37;;;3.60;99.90;;;;;;4929417;29;20465;-70
2023/03/07 01:25:12;;;;;;;18.43;9.40;;;3.60;99.90;;;;;;4914645;29;20525;-70
2023/03/07 01:27:38;;;;;;;21.20;11.10;;;3.60;99.90;;;;;;4936004;28;20487;-70
2023/03/07 01:30:06;;;;;;;19.10;9.43;;;3.60;99.90;;;;;;4918676;29;20967;-69
2023/03/07 01:32:32;;;;;;;26.20;11.33;;;3.60;99.90;;;;;;4941909;28;20505;-70
2023/03/07 01:34:58;;;;;;;19.73;9.40;;;3.60;99.90;;;;;;4904768;29;20490;-70
2023/03/07 01:37:24;;;;;;;22.17;10.10;;;3.60;99.90;;;;;;4928115;29;20231;-71
2023/03/07 01:39:51;;;;;;;21.63;10.13;;;3.70;99.90;;;;;;4909021;29;20250;-70
2023/03/07 01:42:17;;;;;;;22.00;11.70;;;3.70;99.90;;;;;;4902474;29;20238;-70
2023/03/07 01:45:34;;;;;;;16.47;8.53;;;3.60;99.90;;;;;;4929190;28;20501;-70
2023/03/07 01:47:59;;;;;;;16.57;9.03;;;3.60;99.90;;;;;;4896774;29;20475;-70
2023/03/07 01:50:26;;;;;;;23.00;9.70;;;3.60;99.90;;;;;;4942657;28;20478;-71
2023/03/07 01:52:56;;;;;;;16.27;8.87;;;3.60;99.90;;;;;;4924531;28;20463;-71
2023/03/07 01:55:30;;;;;;;14.83;8.87;;;3.70;99.90;;;;;;4925561;29;20544;-71
2023/03/07 01:58:08;;;;;;;16.60;9.03;;;3.70;99.90;;;;;;4945602;28;20521;-70
2023/03/07 02:00:37;;;;;;;18.33;8.40;;;3.80;99.90;;;;;;4909884;29;20490;-70
2023/03/07 02:03:20;;;;;;;17.80;8.00;;;3.80;99.90;;;;;;4928703;29;20477;-70
2023/03/07 02:05:55;;;;;;;12.53;7.80;;;3.80;99.90;;;;;;4942279;28;20463;-70
2023/03/07 02:08:25;;;;;;;15.90;7.33;;;3.80;99.90;;;;;;4922664;29;20455;-71
2023/03/07 02:10:51;;;;;;;15.93;8.03;;;3.90;99.90;;;;;;4921105;29;20531;-70
2023/03/07 02:13:17;;;;;;;11.17;6.37;;;3.90;99.90;;;;;;4919856;29;20491;-70
2023/03/07 02:15:43;;;;;;;17.10;8.40;;;3.90;99.90;;;;;;4924657;29;20463;-69
2023/03/07 02:18:14;;;;;;;12.63;7.30;;;3.80;99.90;;;;;;4903702;29;20470;-70
2023/03/07 02:21:03;;;;;;;13.73;7.27;;;3.90;99.90;;;;;;4921830;28;20219;-70
2023/03/07 02:23:29;;;;;;;11.03;6.63;;;3.80;99.90;;;;;;4924054;29;20462;-70
2023/03/07 02:25:55;;;;;;;11.50;6.87;;;3.90;99.90;;;;;;4944146;28;20475;-70
2023/03/07 02:28:21;;;;;;;12.67;7.37;;;3.80;99.90;;;;;;4926823;29;20287;-70
2023/03/07 02:31:06;;;;;;;12.50;7.10;;;3.80;99.90;;;;;;4917647;29;20463;-69
2023/03/07 02:33:34;;;;;;;13.50;7.07;;;3.70;99.90;;;;;;4904391;29;20690;-70
2023/03/07 02:36:17;;;;;;;10.60;6.60;;;3.70;99.90;;;;;;4926120;29;20439;-69
2023/03/07 02:38:56;;;;;;;13.70;7.13;;;3.90;99.90;;;;;;4934688;28;20459;-70
2023/03/07 02:41:28;;;;;;;12.10;6.37;;;4.00;99.90;;;;;;4916194;29;20462;-69
2023/03/07 02:43:56;;;;;;;14.03;6.50;;;4.00;99.90;;;;;;4913322;28;20443;-70
2023/03/07 02:46:23;;;;;;;12.07;6.67;;;3.90;99.90;;;;;;4918693;29;20493;-70
2023/03/07 02:48:48;;;;;;;16.63;7.20;;;3.80;99.90;;;;;;4905363;29;21062;-69
2023/03/07 02:51:15;;;;;;;11.67;6.20;;;3.70;99.90;;;;;;4927510;29;20845;-70
2023/03/07 02:53:42;;;;;;;9.40;5.40;;;3.70;99.90;;;;;;4920934;29;20461;-69
2023/03/07 02:56:08;;;;;;;10.83;5.77;;;3.70;99.90;;;;;;4942817;28;20463;-69
2023/03/07 02:58:34;;;;;;;12.60;6.47;;;3.70;99.90;;;;;;4935582;28;20459;-70
2023/03/07 03:01:00;;;;;;;9.77;5.53;;;3.70;99.90;;;;;;4924370;29;20230;-69
2023/03/07 03:03:25;;;;;;;8.87;5.57;;;3.70;99.90;;;;;;4917503;29;20286;-70
2023/03/07 03:05:51;;;;;;;8.40;5.80;;;3.70;99.90;;;;;;4933308;29;20494;-70
2023/03/07 03:08:17;;;;;;;12.10;7.03;;;3.60;99.90;;;;;;4925471;29;20219;-70
2023/03/07 03:10:43;;;;;;;9.53;5.70;;;3.60;99.90;;;;;;4926641;28;20281;-70
2023/03/07 03:13:10;;;;;;;11.40;6.33;;;3.70;99.90;;;;;;4916171;29;20251;-70
2023/03/07 03:15:36;;;;;;;8.43;5.70;;;3.60;99.90;;;;;;4935609;28;20649;-69
2023/03/07 03:18:02;;;;;;;13.40;5.73;;;3.60;99.90;;;;;;4899927;29;20549;-69
2023/03/07 03:20:29;;;;;;;7.70;5.53;;;3.60;99.90;;;;;;4924824;29;20223;-70
2023/03/07 03:22:55;;;;;;;11.83;6.80;;;3.60;99.90;;;;;;4923322;29;20461;-69
2023/03/07 03:25:23;;;;;;;14.60;5.70;;;3.50;99.90;;;;;;4948931;28;20959;-70
2023/03/07 03:27:49;;;;;;;10.47;6.40;;;3.70;99.90;;;;;;4944691;28;20849;-70
2023/03/07 03:30:15;;;;;;;12.60;6.60;;;3.60;99.90;;;;;;4922806;29;20556;-70
2023/03/07 03:32:42;;;;;;;13.60;7.80;;;3.60;99.90;;;;;;4931183;29;20456;-69
2023/03/07 03:35:10;;;;;;;6.40;4.77;;;3.60;99.90;;;;;;4927381;29;20453;-69
2023/03/07 03:37:36;;;;;;;14.67;7.03;;;3.60;99.90;;;;;;4941860;28;20519;-69
2023/03/07 03:40:10;;;;;;;12.27;7.13;;;3.70;99.90;;;;;;4951162;28;21046;-70
2023/03/07 03:42:35;;;;;;;10.50;5.80;;;3.70;99.90;;;;;;4908300;29;20627;-70
2023/03/07 03:45:01;;;;;;;11.30;7.67;;;3.70;99.90;;;;;;4928704;29;20518;-70
2023/03/07 03:47:27;;;;;;;14.60;7.87;;;3.70;99.90;;;;;;4938767;29;20231;-69
2023/03/07 03:49:52;;;;;;;14.90;7.30;;;3.70;99.90;;;;;;4922759;29;20250;-69
2023/03/07 03:52:19;;;;;;;15.80;7.70;;;3.70;99.90;;;;;;4916582;29;20716;-70
2023/03/07 03:54:45;;;;;;;17.13;8.47;;;3.70;99.90;;;;;;4908717;29;20311;-70
2023/03/07 03:57:14;;;;;;;15.53;8.60;;;3.70;99.90;;;;;;4913397;29;21113;-70
2023/03/07 03:59:40;;;;;;;13.93;7.50;;;3.80;99.90;;;;;;4921782;29;20229;-68
2023/03/07 04:02:05;;;;;;;13.23;7.97;;;3.80;99.90;;;;;;4944548;28;20463;-67
2023/03/07 04:04:31;;;;;;;11.60;7.60;;;3.80;99.90;;;;;;4926674;28;20223;-68
2023/03/07 04:06:57;;;;;;;14.00;7.57;;;3.80;99.90;;;;;;4944758;28;20312;-67
2023/03/07 04:09:23;;;;;;;15.40;8.67;;;3.90;99.90;;;;;;4924145;29;20409;-69
2023/03/07 04:11:49;;;;;;;13.10;7.43;;;3.70;99.90;;;;;;4945584;28;20238;-68
2023/03/07 04:14:15;;;;;;;18.30;8.60;;;3.80;99.90;;;;;;4930112;28;20317;-68
2023/03/07 04:16:40;;;;;;;16.03;8.60;;;3.80;99.90;;;;;;4942758;28;20549;-68
2023/03/07 04:19:09;;;;;;;19.03;10.17;;;3.70;99.90;;;;;;4918518;28;20229;-67
2023/03/07 04:21:34;;;;;;;17.27;8.50;;;3.70;99.90;;;;;;4940059;28;20281;-68
2023/03/07 04:24:00;;;;;;;16.70;9.00;;;3.80;99.90;;;;;;4917889;29;20490;-68
2023/03/07 04:26:31;;;;;;;14.03;7.33;;;3.70;99.90;;;;;;4929486;28;20231;-67
2023/03/07 04:28:57;;;;;;;17.23;8.37;;;3.80;99.90;;;;;;4942647;28;20518;-68
2023/03/07 04:31:37;;;;;;;18.40;9.43;;;3.80;99.90;;;;;;4905440;29;20234;-66
2023/03/07 04:34:04;;;;;;;17.00;8.90;;;3.80;99.90;;;;;;4906894;29;20451;-68
2023/03/07 04:36:30;;;;;;;15.60;8.97;;;3.80;99.90;;;;;;4907441;29;20488;-67
2023/03/07 04:38:56;;;;;;;17.90;8.90;;;3.70;99.90;;;;;;4939038;28;20482;-68
2023/03/07 04:41:25;;;;;;;17.40;7.33;;;3.80;99.90;;;;;;4921218;29;20298;-68
2023/03/07 04:43:55;;;;;;;16.47;8.83;;;3.70;99.90;;;;;;4925288;29;20214;-68
2023/03/07 04:46:23;;;;;;;14.57;8.30;;;3.70;99.90;;;;;;4922322;29;20475;-68
2023/03/07 04:48:48;;;;;;;17.60;9.03;;;3.70;99.90;;;;;;4929615;29;20485;-66
2023/03/07 04:51:14;;;;;;;17.57;8.33;;;3.70;99.90;;;;;;4928884;28;20501;-68
2023/03/07 04:53:40;;;;;;;18.03;7.73;;;3.80;99.90;;;;;;4906176;29;20584;-67
2023/03/07 04:56:07;;;;;;;16.43;8.57;;;3.80;99.90;;;;;;4903484;29;20452;-67
2023/03/07 04:58:35;;;;;;;14.30;8.50;;;3.80;99.90;;;;;;4936718;28;20241;-68
2023/03/07 05:01:02;;;;;;;21.87;10.13;;;3.80;99.90;;;;;;4940051;28;20495;-68
2023/03/07 05:03:29;;;;;;;18.03;8.67;;;3.80;99.90;;;;;;4915963;29;20471;-68
2023/03/07 05:06:04;;;;;;;17.17;8.60;;;3.70;99.90;;;;;;4920676;28;20463;-69
2023/03/07 05:08:30;;;;;;;13.80;7.77;;;3.80;99.90;;;;;;4915206;29;20466;-68
2023/03/07 05:10:55;;;;;;;17.50;7.80;;;3.80;99.90;;;;;;4928026;29;20553;-68
2023/03/07 05:13:21;;;;;;;17.23;7.63;;;3.80;99.90;;;;;;4927865;29;20530;-69
2023/03/07 05:15:51;;;;;;;15.83;7.10;;;3.80;99.90;;;;;;4944176;28;20265;-68
2023/03/07 05:18:19;;;;;;;14.87;8.07;;;3.80;99.90;;;;;;4903640;29;20215;-68
2023/03/07 05:20:45;;;;;;;18.47;8.80;;;3.80;99.90;;;;;;4915029;28;20458;-72
2023/03/07 05:23:11;;;;;;;17.03;8.43;;;3.80;99.90;;;;;;4918080;29;20281;-68
2023/03/07 05:25:39;;;;;;;16.50;9.53;;;3.80;99.90;;;;;;4907821;29;20523;-68
2023/03/07 05:28:05;;;;;;;14.73;8.23;;;3.80;99.90;;;;;;4949315;28;20728;-68
2023/03/07 05:30:30;;;;;;;12.53;7.60;;;3.80;99.90;;;;;;4923256;29;20530;-69
2023/03/07 05:32:56;;;;;;;15.13;9.00;;;3.70;99.90;;;;;;4922675;28;20301;-69
2023/03/07 05:35:23;;;;;;;15.87;9.03;;;3.70;99.90;;;;;;4923600;29;20705;-69
2023/03/07 05:37:51;;;;;;;16.30;9.60;;;3.70;99.90;;;;;;4911649;29;20455;-69
2023/03/07 05:40:17;;;;;;;18.37;8.13;;;3.70;99.90;;;;;;4919280;29;20483;-68
2023/03/07 05:42:45;;;;;;;14.83;8.00;;;3.70;99.90;;;;;;4918823;29;20467;-70
2023/03/07 05:45:12;;;;;;;14.73;7.67;;;3.70;99.90;;;;;;4926731;29;20474;-69
2023/03/07 05:47:38;;;;;;;16.67;7.93;;;3.70;99.90;;;;;;4919553;28;20498;-69
2023/03/07 05:50:08;;;;;;;16.10;9.33;;;3.70;99.90;;;;;;4929336;29;20466;-69
2023/03/07 05:52:34;;;;;;;15.90;9.17;;;3.70;99.90;;;;;;4930961;29;20461;-69
2023/03/07 05:55:00;;;;;;;17.00;7.57;;;3.70;99.90;;;;;;4917959;29;20477;-69
2023/03/07 05:57:26;;;;;;;15.13;8.43;;;3.70;99.90;;;;;;4919008;29;20227;-68
2023/03/07 05:59:51;;;;;;;17.60;8.93;;;3.60;99.90;;;;;;4914739;29;20720;-68
2023/03/07 06:02:17;;;;;;;17.20;9.20;;;3.70;99.90;;;;;;4922880;29;20328;-69
2023/03/07 06:04:43;;;;;;;23.77;8.03;;;3.70;99.90;;;;;;4922219;29;20298;-68
2023/03/07 06:07:08;;;;;;;15.97;8.47;;;3.70;99.90;;;;;;4921799;29;20239;-69
2023/03/07 06:09:34;;;;;;;14.30;9.00;;;3.70;99.90;;;;;;4923802;29;20249;-68
2023/03/07 06:12:00;;;;;;;13.97;7.63;;;3.70;99.90;;;;;;4915265;29;20488;-68
2023/03/07 06:14:26;;;;;;;14.70;8.70;;;3.70;99.90;;;;;;4922640;28;20549;-68
2023/03/07 06:16:52;;;;;;;16.80;7.97;;;3.70;99.90;;;;;;4917261;29;20234;-68
2023/03/07 06:19:17;;;;;;;17.57;8.10;;;3.70;99.90;;;;;;4940489;28;20255;-68
2023/03/07 06:21:43;;;;;;;14.57;8.00;;;3.70;99.90;;;;;;4940494;28;20227;-67
2023/03/07 06:24:09;;;;;;;18.47;8.13;;;3.70;99.90;;;;;;4908042;29;20559;-66
2023/03/07 06:26:35;;;;;;;15.40;7.50;;;3.60;99.90;;;;;;4936100;28;20247;-70
2023/03/07 06:29:02;;;;;;;14.37;9.00;;;3.60;99.90;;;;;;4904522;29;20306;-69
2023/03/07 06:31:28;;;;;;;15.97;8.40;;;3.60;99.90;;;;;;4918819;29;20538;-69
2023/03/07 06:33:54;;;;;;;12.87;7.10;;;3.60;99.90;;;;;;4946639;28;20961;-68
2023/03/07 06:36:20;;;;;;;14.00;6.97;;;3.60;99.90;;;;;;4927995;29;20487;-69
2023/03/07 06:38:51;;;;;;;9.30;6.40;;;3.60;99.90;;;;;;4916322;29;20469;-68
2023/03/07 06:41:17;;;;;;;14.53;8.00;;;3.70;99.90;;;;;;4921461;29;20546;-68
2023/03/07 06:43:44;;;;;;;14.03;8.20;;;3.60;99.90;;;;;;4942368;28;20359;-68
2023/03/07 06:46:10;;;;;;;11.17;6.97;;;3.60;99.90;;;;;;4911239;29;20533;-69
2023/03/07 06:48:39;;;;;;;17.33;6.97;;;3.60;99.90;;;;;;4946880;28;20305;-67
2023/03/07 06:51:09;;;;;;;14.23;7.80;;;3.60;99.90;;;;;;4933821;28;20460;-69
2023/03/07 06:53:36;;;;;;;15.43;6.87;;;3.60;99.90;;;;;;4929895;29;20818;-69
2023/03/07 06:56:03;;;;;;;11.60;7.33;;;3.60;99.90;;;;;;4929828;28;20455;-69
2023/03/07 06:58:30;;;;;;;13.20;7.10;;;3.60;99.90;;;;;;4919563;29;20493;-69
2023/03/07 07:00:55;;;;;;;16.03;8.10;;;3.70;99.90;;;;;;4938359;28;20474;-69
2023/03/07 07:03:22;;;;;;;14.30;8.33;;;3.70;99.90;;;;;;4907619;29;20230;-68
2023/03/07 07:05:47;;;;;;;22.10;8.00;;;3.70;99.90;;;;;;4917827;29;20452;-69
2023/03/07 07:08:13;;;;;;;16.93;8.33;;;3.60;99.90;;;;;;4931533;29;20254;-69
2023/03/07 07:10:39;;;;;;;11.93;7.30;;;3.60;99.90;;;;;;4928803;29;20447;-68
2023/03/07 07:13:05;;;;;;;13.03;7.30;;;3.70;99.90;;;;;;4925669;29;20223;-68
2023/03/07 07:15:32;;;;;;;11.80;6.80;;;3.70;99.90;;;;;;4909527;29;20886;-68
2023/03/07 07:17:58;;;;;;;14.10;7.27;;;3.70;99.90;;;;;;4940556;28;20461;-69
2023/03/07 07:20:24;;;;;;;14.23;7.20;;;3.60;99.90;;;;;;4946436;28;20494;-68
2023/03/07 07:22:51;;;;;;;15.10;7.83;;;3.70;99.90;;;;;;4927914;29;20543;-69
2023/03/07 07:25:18;;;;;;;13.70;7.70;;;3.70;99.90;;;;;;4943376;28;20457;-69
2023/03/07 07:27:43;;;;;;;13.87;6.70;;;3.70;99.90;;;;;;4904537;29;20472;-69
2023/03/07 07:30:10;;;;;;;10.17;7.23;;;3.70;99.90;;;;;;4926753;29;20777;-69
2023/03/07 07:32:36;;;;;;;18.00;6.07;;;3.80;99.90;;;;;;4946246;28;20571;-69
2023/03/07 07:35:03;;;;;;;13.50;7.77;;;3.80;99.90;;;;;;4919804;29;20983;-69
2023/03/07 07:37:30;;;;;;;14.40;9.70;;;3.80;99.90;;;;;;4913057;29;20483;-69
2023/03/07 07:39:55;;;;;;;14.00;8.57;;;3.80;99.90;;;;;;4914222;29;20490;-69
2023/03/07 07:42:21;;;;;;;12.57;8.00;;;3.90;99.90;;;;;;4949000;28;20235;-69
2023/03/07 07:44:59;;;;;;;12.10;6.83;;;4.00;99.90;;;;;;4913086;29;20222;-69
2023/03/07 07:47:25;;;;;;;17.77;6.97;;;4.00;99.90;;;;;;4944301;28;20468;-69
2023/03/07 07:49:50;;;;;;;13.83;7.23;;;4.00;99.90;;;;;;4914330;29;20210;-69
2023/03/07 07:52:16;;;;;;;15.00;6.60;;;3.90;99.90;;;;;;4918489;29;20468;-69
2023/03/07 07:54:42;;;;;;;14.73;8.70;;;4.00;99.90;;;;;;4942377;28;20235;-69
2023/03/07 07:57:08;;;;;;;22.87;12.10;;;4.00;99.90;;;;;;4949558;28;20439;-69
2023/03/07 07:59:34;;;;;;;19.63;11.70;;;4.00;99.90;;;;;;4910071;29;20215;-69
2023/03/07 08:02:01;;;;;;;31.70;17.10;;;4.00;99.90;;;;;;4913036;28;20471;-69
2023/03/07 08:04:27;;;;;;;21.93;13.23;;;4.10;99.90;;;;;;4901325;29;20468;-69
2023/03/07 08:06:53;;;;;;;15.80;9.37;;;4.10;99.90;;;;;;4927903;28;20221;-69
2023/03/07 08:09:19;;;;;;;17.30;11.43;;;4.20;99.90;;;;;;4925302;28;20301;-70
2023/03/07 08:11:45;;;;;;;14.17;10.50;;;4.20;99.90;;;;;;4924100;29;20539;-69
2023/03/07 08:14:10;;;;;;;13.20;9.00;;;4.30;99.90;;;;;;4919734;29;20214;-69
2023/03/07 08:16:36;;;;;;;14.30;8.10;;;4.30;99.90;;;;;;4922641;29;20518;-69
2023/03/07 08:19:02;;;;;;;22.80;7.67;;;4.30;99.90;;;;;;4922259;29;20219;-69
2023/03/07 08:21:28;;;;;;;15.40;6.53;;;4.40;99.90;;;;;;4928279;29;20249;-69
2023/03/07 08:23:54;;;;;;;48.33;21.47;;;4.40;99.90;;;;;;4921953;28;20271;-69
2023/03/07 08:26:20;;;;;;;48.97;27.40;;;4.40;99.90;;;;;;4943625;28;20254;-70
2023/03/07 08:28:46;;;;;;;48.80;24.07;;;4.40;99.90;;;;;;4925526;29;20466;-69
2023/03/07 08:31:13;;;;;;;20.27;12.07;;;4.50;99.90;;;;;;4931713;28;20467;-69
2023/03/07 08:33:40;;;;;;;14.77;8.10;;;4.60;99.90;;;;;;4944035;28;20495;-69
2023/03/07 08:36:06;;;;;;;11.07;5.90;;;4.60;99.90;;;;;;4919901;29;20446;-69
2023/03/07 08:38:32;;;;;;;15.07;6.70;;;4.70;99.90;;;;;;4903060;29;20448;-69
2023/03/07 08:41:00;;;;;;;10.30;6.40;;;4.70;99.90;;;;;;4909881;29;20463;-69
2023/03/07 08:43:27;;;;;;;8.60;5.27;;;4.70;99.90;;;;;;4917636;29;20218;-69
2023/03/07 08:45:54;;;;;;;13.67;7.57;;;4.80;99.90;;;;;;4917130;28;20446;-69
2023/03/07 08:48:19;;;;;;;12.10;6.83;;;4.80;99.90;;;;;;4927766;29;20545;-69
2023/03/07 08:50:45;;;;;;;7.80;6.10;;;4.80;99.90;;;;;;4925923;29;20495;-70
2023/03/07 08:53:13;;;;;;;12.53;6.90;;;4.90;99.90;;;;;;4913903;29;20226;-69
2023/03/07 08:55:39;;;;;;;11.63;6.60;;;5.00;99.90;;;;;;4919992;28;20546;-70
2023/03/07 08:58:04;;;;;;;11.43;7.47;;;4.90;99.90;;;;;;4939307;28;22888;-68
2023/03/07 09:00:30;;;;;;;16.53;9.37;;;5.00;99.90;;;;;;4947114;28;20218;-69
2023/03/07 09:03:00;;;;;;;15.13;9.77;;;5.10;99.90;;;;;;4917357;28;20275;-69
2023/03/07 09:05:29;;;;;;;18.03;11.80;;;5.10;99.90;;;;;;4921541;29;20224;-69
2023/03/07 09:07:55;;;;;;;18.23;11.37;;;5.20;99.90;;;;;;4918120;29;20486;-69
2023/03/07 09:10:21;;;;;;;19.83;10.60;;;5.20;99.90;;;;;;4940710;28;20459;-69
2023/03/07 09:12:48;;;;;;;13.90;7.40;;;5.30;99.90;;;;;;4921165;28;20530;-69
2023/03/07 09:15:14;;;;;;;12.10;7.27;;;5.50;99.90;;;;;;4929584;29;20446;-69
2023/03/07 09:17:39;;;;;;;11.03;7.13;;;5.50;99.90;;;;;;4918030;29;20474;-69
2023/03/07 09:20:08;;;;;;;10.57;6.30;;;5.60;99.90;;;;;;4943454;28;20327;-69
2023/03/07 09:22:34;;;;;;;8.93;5.27;;;5.70;99.90;;;;;;4918754;29;20230;-69
2023/03/07 09:24:59;;;;;;;11.93;6.70;;;5.70;99.90;;;;;;4910805;29;20464;-69
2023/03/07 09:27:25;;;;;;;11.90;5.63;;;5.70;99.90;;;;;;4917431;29;20227;-70
2023/03/07 09:29:51;;;;;;;9.67;6.20;;;5.80;99.90;;;;;;4920881;29;20255;-69
2023/03/07 09:32:17;;;;;;;8.70;6.03;;;5.90;99.90;;;;;;4929581;29;20463;-69
2023/03/07 09:34:42;;;;;;;7.90;5.17;;;5.90;99.90;;;;;;4929563;29;20282;-69
2023/03/07 09:37:09;;;;;;;10.23;5.47;;;6.00;99.90;;;;;;4923023;29;20214;-68
2023/03/07 09:39:35;;;;;;;10.23;5.97;;;6.00;99.90;;;;;;4939495;28;20641;-69
2023/03/07 09:42:18;;;;;;;11.10;6.70;;;6.10;99.90;;;;;;4921499;28;20522;-70
2023/03/07 09:45:09;;;;;;;12.07;6.43;;;6.10;99.90;;;;;;4909016;29;20219;-68
2023/03/07 09:48:15;;;;;;;9.57;5.73;;;6.20;99.90;;;;;;4942511;28;20489;-69
2023/03/07 09:51:03;;;;;;;8.87;5.70;;;6.20;99.90;;;;;;4928347;29;20479;-69
2023/03/07 09:53:50;;;;;;;14.13;9.50;;;6.30;99.90;;;;;;4922336;29;20530;-70
2023/03/07 09:56:31;;;;;;;16.13;9.20;;;6.40;99.90;;;;;;4948801;28;20451;-70
2023/03/07 09:59:07;;;;;;;16.30;8.77;;;6.30;99.90;;;;;;4917638;28;20468;-69
2023/03/07 10:01:36;;;;;;;11.00;6.00;;;6.30;99.90;;;;;;4916433;29;21056;-69
2023/03/07 10:04:05;;;;;;;10.67;5.80;;;6.30;99.90;;;;;;4920648;29;20452;-70
2023/03/07 10:06:42;;;;;;;10.43;6.50;;;6.30;99.90;;;;;;4920795;29;20478;-70
2023/03/07 10:09:17;;;;;;;11.33;6.40;;;6.30;99.90;;;;;;4903370;29;20450;-69
2023/03/07 10:12:24;;;;;;;10.67;6.23;;;6.30;99.90;;;;;;4910115;29;20535;-69
2023/03/07 10:15:04;;;;;;;9.50;4.87;;;6.30;99.90;;;;;;4925957;28;20471;-69
2023/03/07 10:17:54;;;;;;;11.10;5.60;;;6.30;99.90;;;;;;4927262;29;20455;-70
2023/03/07 10:20:43;;;;;;;10.00;5.80;;;6.30;99.90;;;;;;4944468;28;20458;-70
2023/03/07 10:23:40;;;;;;;9.30;5.50;;;6.50;99.90;;;;;;4920132;28;20444;-69
2023/03/07 10:26:06;;;;;;;10.30;4.93;;;6.60;99.90;;;;;;4925085;29;20447;-69
2023/03/07 10:28:34;;;;;;;12.30;6.03;;;6.80;99.90;;;;;;4919808;29;20454;-70
2023/03/07 10:31:36;;;;;;;8.23;6.20;;;6.90;99.90;;;;;;4927156;29;20697;-70
2023/03/07 10:34:38;;;;;;;9.47;6.17;;;7.10;99.90;;;;;;4918699;29;20490;-69
2023/03/07 10:37:16;;;;;;;7.87;4.83;;;7.30;99.90;;;;;;4909896;29;20981;-69
2023/03/07 10:39:45;;;;;;;10.40;6.60;;;7.60;99.90;;;;;;4947088;28;20462;-70
2023/03/07 10:42:14;;;;;;;8.23;5.03;;;7.80;99.90;;;;;;4946384;28;20474;-69
2023/03/07 10:44:41;;;;;;;7.97;5.87;;;7.90;99.90;;;;;;4922879;29;20518;-69
2023/03/07 10:47:17;;;;;;;11.43;5.87;;;8.10;99.90;;;;;;4917230;29;20566;-69
2023/03/07 10:49:45;;;;;;;11.50;5.80;;;8.40;99.90;;;;;;4923908;29;20521;-70
2023/03/07 10:52:28;;;;;;;12.63;5.30;;;8.50;99.90;;;;;;4922661;28;20497;-69
2023/03/07 10:54:54;;;;;;;14.87;5.50;;;8.30;99.90;;;;;;4930781;29;20459;-70
2023/03/07 10:57:26;;;;;;;8.33;5.50;;;8.30;99.90;;;;;;4917603;29;20455;-70
2023/03/07 10:59:52;;;;;;;13.20;5.47;;;8.20;99.90;;;;;;4948515;28;20221;-69
2023/03/07 11:02:40;;;;;;;8.00;5.40;;;8.30;99.90;;;;;;4921544;29;20468;-70
2023/03/07 11:05:30;;;;;;;9.80;5.10;;;8.20;99.90;;;;;;4928552;29;20315;-70
2023/03/07 11:07:57;;;;;;;6.80;4.17;;;8.20;99.90;;;;;;4947438;28;20868;-70
2023/03/07 11:10:33;;;;;;;9.57;5.23;;;8.20;99.90;;;;;;4906350;29;20985;-70
2023/03/07 11:13:12;;;;;;;7.87;4.80;;;8.10;99.90;;;;;;4928581;28;20585;-69
2023/03/07 11:15:38;;;;;;;12.87;5.57;;;8.10;99.90;;;;;;4907099;29;20462;-69
2023/03/07 11:18:03;;;;;;;8.87;4.33;;;8.20;99.90;;;;;;4935584;28;20522;-69
2023/03/07 11:20:47;;;;;;;5.90;4.30;;;8.20;99.90;;;;;;4922811;29;20223;-70
2023/03/07 11:23:16;;;;;;;8.00;4.90;;;8.20;99.90;;;;;;4922905;28;20242;-70
2023/03/07 11:25:42;;;;;;;9.97;5.23;;;8.20;99.90;;;;;;4923833;29;20478;-70
2023/03/07 11:28:26;;;;;;;8.17;4.30;;;8.10;99.90;;;;;;4923117;28;20454;-70
2023/03/07 11:31:53;;;;;;;7.77;5.40;;;8.00;99.90;;;;;;4923375;29;20462;-70
2023/03/07 11:34:31;;;;;;;6.80;4.60;;;8.10;99.90;;;;;;4913928;29;20492;-70
2023/03/07 11:37:22;;;;;;;6.97;4.97;;;8.20;99.90;;;;;;4911477;29;21207;-69
2023/03/07 11:40:27;;;;;;;8.40;5.13;;;8.20;99.90;;;;;;4923412;28;20488;-70
2023/03/07 11:43:14;;;;;;;9.83;4.90;;;8.20;99.90;;;;;;4925917;28;20493;-70
2023/03/07 11:45:45;;;;;;;9.13;5.50;;;8.20;99.90;;;;;;4925638;28;20808;-69
2023/03/07 11:48:55;;;;;;;9.50;5.50;;;8.30;99.90;;;;;;4921680;28;20490;-70
2023/03/07 11:51:54;;;;;;;8.37;5.40;;;8.20;99.90;;;;;;4873006;29;20557;-70
2023/03/07 11:54:53;;;;;;;8.57;5.40;;;8.20;99.90;;;;;;4868955;29;20540;-70
2023/03/07 11:57:59;;;;;;;7.80;4.80;;;8.30;99.90;;;;;;4925949;29;20483;-70
2023/03/07 12:00:28;;;;;;;8.47;4.63;;;8.30;99.90;;;;;;4925733;29;20475;-70
2023/03/07 12:03:27;;;;;;;9.80;5.87;;;8.20;99.90;;;;;;4926454;29;20459;-70
2023/03/07 12:06:21;;;;;;;13.00;5.00;;;8.20;99.90;;;;;;4921017;29;20834;-70
2023/03/07 12:08:53;;;;;;;6.23;4.77;;;8.20;99.90;;;;;;4929406;28;20455;-69
2023/03/07 12:11:50;;;;;;;9.07;5.90;;;8.40;99.90;;;;;;4924352;29;20478;-70
2023/03/07 12:14:31;;;;;;;9.00;5.63;;;8.40;99.90;;;;;;4905675;29;20462;-70
2023/03/07 12:17:08;;;;;;;11.70;6.50;;;8.50;99.90;;;;;;4939720;28;20486;-70
2023/03/07 12:19:48;;;;;;;10.60;4.80;;;8.40;99.90;;;;;;4927953;28;20491;-70
2023/03/07 12:22:27;;;;;;;12.30;5.67;;;8.50;99.90;;;;;;4946708;28;20470;-70
2023/03/07 12:25:02;;;;;;;10.87;5.10;;;8.40;99.90;;;;;;4920108;28;20448;-70
2023/03/07 12:27:40;;;;;;;10.00;4.93;;;8.40;99.90;;;;;;4922537;28;20471;-70
2023/03/07 12:30:12;;;;;;;8.83;5.10;;;8.40;99.90;;;;;;4923755;29;20455;-70
2023/03/07 12:32:38;;;;;;;9.40;5.70;;;8.40;99.90;;;;;;4942659;28;20471;-71
2023/03/07 12:35:14;;;;;;;10.50;5.87;;;8.30;99.90;;;;;;4922571;28;20451;-70
2023/03/07 12:37:59;;;;;;;8.20;4.60;;;8.20;99.90;;;;;;4951363;28;20592;-69
2023/03/07 12:40:47;;;;;;;9.27;5.90;;;8.20;99.90;;;;;;4916629;29;20596;-70
2023/03/07 12:43:32;;;;;;;12.57;4.87;;;8.10;99.90;;;;;;4923000;29;20543;-70
2023/03/07 12:46:26;;;;;;;12.97;5.10;;;8.10;99.90;;;;;;4923003;29;20464;-70
2023/03/07 12:49:15;;;;;;;7.50;5.13;;;8.00;99.90;;;;;;4930633;29;20483;-69
2023/03/07 12:51:47;;;;;;;12.60;5.70;;;8.00;99.90;;;;;;4909760;29;20519;-69
2023/03/07 12:54:21;;;;;;;9.77;5.90;;;7.90;99.90;;;;;;4949644;28;20443;-70
2023/03/07 12:56:55;;;;;;;9.73;5.47;;;7.90;99.90;;;;;;4938082;28;20452;-70
2023/03/07 12:59:21;;;;;;;10.60;6.13;;;7.90;99.90;;;;;;4924310;29;20446;-69
2023/03/07 13:02:02;;;;;;;11.30;6.17;;;7.90;99.90;;;;;;5027955;28;20538;-69
2023/03/07 13:04:37;;;;;;;9.73;5.97;;;7.80;99.90;;;;;;5024393;28;20458;-69
2023/03/07 13:07:10;;;;;;;7.07;5.20;;;7.80;99.90;;;;;;5024921;28;20542;-69